GIA7307 WMKK-WIII
Flight info
| Callsign | GIA7307 |
|---|---|
| Flight time | 1h 48m |
| Altitude | 41000 |
| Route | MITOS1D MITOS M630 BOBAG P501 ANITO B470 BUNIK BUNIK2F |
| Aircraft | B77W/H-SDE1E2E3FGHIJ2J3J4J5M1RWXY/LB1D1 |
Departure
| Time | 2026-05-06 17:16 |
|---|---|
| Airport | Kuala Lumpur International Airport (WMKK) |
Arrival
| Time | 2026-05-06 19:04 |
|---|---|
| Airport | Soekarno-Hatta International Airport (WIII) |
| Time | Latitude | Longitude | Altitude | Speed | Heading |
|---|---|---|---|---|---|
| 2026-05-06 16:49 | 2.74940 | 101.71425 | 83 ft | 0 kts | 146° |
| 2026-05-06 17:06 | 2.74945 | 101.71421 | 84 ft | 2 kts | 146° |
| 2026-05-06 17:07 | 2.74959 | 101.71412 | 84 ft | 3 kts | 146° |
| 2026-05-06 17:07 | 2.74975 | 101.71401 | 84 ft | 3 kts | 146° |
| 2026-05-06 17:07 | 2.74982 | 101.71396 | 84 ft | 2 kts | 146° |
| 2026-05-06 17:07 | 2.74995 | 101.71387 | 84 ft | 3 kts | 146° |
| 2026-05-06 17:08 | 2.75012 | 101.71376 | 84 ft | 3 kts | 146° |
| 2026-05-06 17:08 | 2.75029 | 101.71365 | 84 ft | 3 kts | 146° |
| 2026-05-06 17:08 | 2.75034 | 101.71361 | 84 ft | 0 kts | 146° |
| 2026-05-06 17:10 | 2.75034 | 101.71362 | 84 ft | 1 kts | 145° |
| 2026-05-06 17:10 | 2.75024 | 101.71380 | 84 ft | 8 kts | 112° |
| 2026-05-06 17:11 | 2.75043 | 101.71456 | 84 ft | 16 kts | 53° |
| 2026-05-06 17:11 | 2.75110 | 101.71549 | 84 ft | 19 kts | 54° |
| 2026-05-06 17:11 | 2.75170 | 101.71639 | 84 ft | 14 kts | 58° |
| 2026-05-06 17:11 | 2.75197 | 101.71703 | 84 ft | 9 kts | 86° |
| 2026-05-06 17:12 | 2.75160 | 101.71759 | 84 ft | 10 kts | 142° |
| 2026-05-06 17:12 | 2.75098 | 101.71802 | 84 ft | 12 kts | 145° |
| 2026-05-06 17:12 | 2.75022 | 101.71855 | 84 ft | 14 kts | 145° |
| 2026-05-06 17:12 | 2.74934 | 101.71915 | 84 ft | 16 kts | 147° |
| 2026-05-06 17:13 | 2.74835 | 101.71979 | 84 ft | 18 kts | 147° |
| 2026-05-06 17:13 | 2.74751 | 101.72033 | 84 ft | 11 kts | 146° |
| 2026-05-06 17:13 | 2.74691 | 101.72078 | 84 ft | 10 kts | 133° |
| 2026-05-06 17:13 | 2.74674 | 101.72126 | 84 ft | 5 kts | 78° |
| 2026-05-06 17:14 | 2.74697 | 101.72160 | 84 ft | 7 kts | 56° |
| 2026-05-06 17:14 | 2.74732 | 101.72209 | 84 ft | 10 kts | 51° |
| 2026-05-06 17:14 | 2.74793 | 101.72229 | 84 ft | 10 kts | 347° |
| 2026-05-06 17:14 | 2.74840 | 101.72203 | 84 ft | 7 kts | 323° |
| 2026-05-06 17:15 | 2.74905 | 101.72158 | 84 ft | 26 kts | 325° |
| 2026-05-06 17:15 | 2.75241 | 101.71933 | 84 ft | 94 kts | 326° |
| 2026-05-06 17:15 | 2.75975 | 101.71443 | 84 ft | 152 kts | 327° |
| 2026-05-06 17:15 | 2.76971 | 101.70784 | 372 ft | 184 kts | 326° |
| 2026-05-06 17:16 | 2.78030 | 101.70067 | 1256 ft | 180 kts | 328° |
| 2026-05-06 17:16 | 2.79124 | 101.69464 | 2282 ft | 181 kts | 336° |
| 2026-05-06 17:16 | 2.80327 | 101.69027 | 3320 ft | 184 kts | 341° |
| 2026-05-06 17:16 | 2.81550 | 101.68612 | 4345 ft | 191 kts | 339° |
| 2026-05-06 17:17 | 2.82855 | 101.68081 | 5093 ft | 206 kts | 337° |
| 2026-05-06 17:17 | 2.84263 | 101.67451 | 5515 ft | 239 kts | 336° |
| 2026-05-06 17:17 | 2.85882 | 101.66762 | 6031 ft | 265 kts | 338° |
| 2026-05-06 17:17 | 2.87671 | 101.66136 | 6962 ft | 276 kts | 346° |
| 2026-05-06 17:18 | 2.89615 | 101.66210 | 8077 ft | 289 kts | 11° |
| 2026-05-06 17:18 | 2.91395 | 101.67147 | 9163 ft | 300 kts | 35° |
| 2026-05-06 17:18 | 2.92756 | 101.68778 | 10190 ft | 309 kts | 54° |
| 2026-05-06 17:18 | 2.93651 | 101.70798 | 10949 ft | 330 kts | 75° |
| 2026-05-06 17:19 | 2.93762 | 101.73139 | 11692 ft | 349 kts | 97° |
| 2026-05-06 17:19 | 2.92995 | 101.75497 | 12528 ft | 364 kts | 118° |
| 2026-05-06 17:19 | 2.91426 | 101.77506 | 13469 ft | 372 kts | 139° |
| 2026-05-06 17:19 | 2.89253 | 101.78937 | 14483 ft | 377 kts | 157° |
| 2026-05-06 17:20 | 2.86771 | 101.79814 | 15515 ft | 382 kts | 166° |
| 2026-05-06 17:20 | 2.84207 | 101.80667 | 16508 ft | 391 kts | 164° |
| 2026-05-06 17:20 | 2.81606 | 101.81573 | 17572 ft | 398 kts | 164° |
| 2026-05-06 17:20 | 2.78977 | 101.82485 | 18622 ft | 403 kts | 164° |
| 2026-05-06 17:21 | 2.76331 | 101.83397 | 19604 ft | 410 kts | 164° |
| 2026-05-06 17:21 | 2.73613 | 101.84332 | 20583 ft | 416 kts | 164° |
| 2026-05-06 17:21 | 2.70854 | 101.85277 | 21497 ft | 421 kts | 164° |
| 2026-05-06 17:21 | 2.68266 | 101.86161 | 22340 ft | 427 kts | 164° |
| 2026-05-06 17:22 | 2.65338 | 101.87162 | 23241 ft | 433 kts | 164° |
| 2026-05-06 17:22 | 2.62461 | 101.88144 | 24047 ft | 439 kts | 164° |
| 2026-05-06 17:22 | 2.59581 | 101.89127 | 24837 ft | 445 kts | 164° |
| 2026-05-06 17:22 | 2.56594 | 101.90147 | 25640 ft | 450 kts | 164° |
| 2026-05-06 17:23 | 2.53655 | 101.91149 | 26390 ft | 455 kts | 164° |
| 2026-05-06 17:23 | 2.50635 | 101.92180 | 27127 ft | 460 kts | 164° |
| 2026-05-06 17:23 | 2.47600 | 101.93215 | 27995 ft | 461 kts | 164° |
| 2026-05-06 17:23 | 2.44570 | 101.94248 | 28962 ft | 459 kts | 164° |
| 2026-05-06 17:24 | 2.41548 | 101.95279 | 29897 ft | 458 kts | 164° |
| 2026-05-06 17:24 | 2.38539 | 101.96305 | 30819 ft | 455 kts | 164° |
| 2026-05-06 17:24 | 2.35550 | 101.97325 | 31716 ft | 453 kts | 164° |
| 2026-05-06 17:24 | 2.32566 | 101.98342 | 32429 ft | 452 kts | 164° |
| 2026-05-06 17:25 | 2.29593 | 101.99356 | 32802 ft | 451 kts | 164° |
| 2026-05-06 17:25 | 2.23674 | 102.01375 | 32847 ft | 448 kts | 164° |
| 2026-05-06 17:26 | 2.17783 | 102.03384 | 32846 ft | 448 kts | 164° |
| 2026-05-06 17:26 | 2.11912 | 102.05386 | 32846 ft | 448 kts | 164° |
| 2026-05-06 17:27 | 2.06003 | 102.07401 | 32846 ft | 448 kts | 164° |
| 2026-05-06 17:27 | 2.00111 | 102.09460 | 32841 ft | 450 kts | 159° |
| 2026-05-06 17:27 | 1.97372 | 102.10995 | 32845 ft | 455 kts | 147° |
| 2026-05-06 17:28 | 1.94996 | 102.13099 | 32845 ft | 459 kts | 134° |
| 2026-05-06 17:28 | 1.91983 | 102.17484 | 32848 ft | 461 kts | 122° |
| 2026-05-06 17:29 | 1.88187 | 102.23946 | 32846 ft | 461 kts | 123° |
| 2026-05-06 17:29 | 1.84760 | 102.29316 | 32846 ft | 460 kts | 125° |
| 2026-05-06 17:30 | 1.81199 | 102.34646 | 32846 ft | 460 kts | 126° |
| 2026-05-06 17:30 | 1.77632 | 102.39969 | 32846 ft | 461 kts | 126° |
| 2026-05-06 17:31 | 1.74047 | 102.45324 | 32846 ft | 462 kts | 126° |
| 2026-05-06 17:31 | 1.70484 | 102.50647 | 32846 ft | 460 kts | 126° |
| 2026-05-06 17:32 | 1.66918 | 102.55971 | 32846 ft | 460 kts | 126° |
| 2026-05-06 17:32 | 1.63356 | 102.61290 | 32847 ft | 461 kts | 126° |
| 2026-05-06 17:33 | 1.59785 | 102.66623 | 32847 ft | 462 kts | 126° |
| 2026-05-06 17:33 | 1.56222 | 102.71943 | 32846 ft | 461 kts | 126° |
| 2026-05-06 17:34 | 1.52671 | 102.77244 | 32846 ft | 457 kts | 126° |
| 2026-05-06 17:34 | 1.49122 | 102.82545 | 32846 ft | 459 kts | 126° |
| 2026-05-06 17:35 | 1.45572 | 102.87843 | 32846 ft | 462 kts | 126° |
| 2026-05-06 17:35 | 1.42006 | 102.93166 | 32846 ft | 460 kts | 126° |
| 2026-05-06 17:36 | 1.36671 | 103.01136 | 32846 ft | 460 kts | 125° |
| 2026-05-06 17:36 | 1.33143 | 103.06422 | 32846 ft | 460 kts | 125° |
| 2026-05-06 17:37 | 1.29597 | 103.11736 | 32846 ft | 460 kts | 125° |
| 2026-05-06 17:37 | 1.26050 | 103.17052 | 32845 ft | 458 kts | 125° |
| 2026-05-06 17:38 | 1.22512 | 103.22353 | 32848 ft | 459 kts | 125° |
| 2026-05-06 17:38 | 1.18966 | 103.27671 | 32846 ft | 460 kts | 125° |
| 2026-05-06 17:39 | 1.15414 | 103.32994 | 32846 ft | 459 kts | 125° |
| 2026-05-06 17:39 | 1.11883 | 103.38286 | 32847 ft | 463 kts | 125° |
| 2026-05-06 17:40 | 1.08886 | 103.42777 | 32847 ft | 460 kts | 126° |
| 2026-05-06 17:40 | 1.05384 | 103.48021 | 32844 ft | 455 kts | 126° |
| 2026-05-06 17:41 | 1.01428 | 103.52980 | 32846 ft | 457 kts | 134° |
| 2026-05-06 17:41 | 0.96971 | 103.57501 | 32846 ft | 456 kts | 138° |
| 2026-05-06 17:42 | 0.92476 | 103.61963 | 32846 ft | 456 kts | 137° |
| 2026-05-06 17:42 | 0.88038 | 103.66506 | 32846 ft | 456 kts | 136° |
| 2026-05-06 17:43 | 0.83620 | 103.71065 | 32846 ft | 456 kts | 136° |
| 2026-05-06 17:43 | 0.79207 | 103.75624 | 32846 ft | 456 kts | 136° |
| 2026-05-06 17:44 | 0.74826 | 103.80153 | 32846 ft | 456 kts | 136° |
| 2026-05-06 17:44 | 0.70414 | 103.84713 | 32846 ft | 456 kts | 136° |
| 2026-05-06 17:45 | 0.66001 | 103.89273 | 32846 ft | 456 kts | 136° |
| 2026-05-06 17:45 | 0.61587 | 103.93835 | 32846 ft | 456 kts | 136° |
| 2026-05-06 17:46 | 0.57169 | 103.98398 | 32846 ft | 456 kts | 136° |
| 2026-05-06 17:46 | 0.52754 | 104.02954 | 32846 ft | 456 kts | 136° |
| 2026-05-06 17:47 | 0.48370 | 104.07476 | 32846 ft | 456 kts | 136° |
| 2026-05-06 17:47 | 0.43955 | 104.12029 | 32846 ft | 456 kts | 136° |
| 2026-05-06 17:48 | 0.39546 | 104.16578 | 32846 ft | 456 kts | 136° |
| 2026-05-06 17:48 | 0.35128 | 104.21133 | 32846 ft | 456 kts | 136° |
| 2026-05-06 17:49 | 0.30702 | 104.25703 | 32850 ft | 460 kts | 136° |
| 2026-05-06 17:49 | 0.26268 | 104.30285 | 32845 ft | 459 kts | 136° |
| 2026-05-06 17:50 | 0.21830 | 104.34873 | 32845 ft | 457 kts | 136° |
| 2026-05-06 17:50 | 0.17391 | 104.39461 | 32846 ft | 463 kts | 136° |
| 2026-05-06 17:51 | 0.12968 | 104.44034 | 32846 ft | 455 kts | 136° |
| 2026-05-06 17:51 | 0.08579 | 104.48571 | 32846 ft | 456 kts | 136° |
| 2026-05-06 17:52 | 0.04169 | 104.53130 | 32846 ft | 456 kts | 136° |
| 2026-05-06 17:52 | -0.00251 | 104.57699 | 32846 ft | 460 kts | 136° |
| 2026-05-06 17:53 | -0.04677 | 104.62275 | 32846 ft | 456 kts | 136° |
| 2026-05-06 17:53 | -0.09060 | 104.66806 | 32846 ft | 456 kts | 136° |
| 2026-05-06 17:54 | -0.13463 | 104.71359 | 32846 ft | 456 kts | 136° |
| 2026-05-06 17:54 | -0.17874 | 104.75919 | 32846 ft | 456 kts | 136° |
| 2026-05-06 17:55 | -0.22280 | 104.80475 | 32846 ft | 456 kts | 136° |
| 2026-05-06 17:55 | -0.26701 | 104.85042 | 32846 ft | 455 kts | 137° |
| 2026-05-06 17:56 | -0.31475 | 104.89090 | 32847 ft | 452 kts | 146° |
| 2026-05-06 17:56 | -0.36672 | 104.92621 | 32846 ft | 451 kts | 150° |
| 2026-05-06 17:57 | -0.41936 | 104.96022 | 32846 ft | 451 kts | 149° |
| 2026-05-06 17:57 | -0.47172 | 104.99495 | 32846 ft | 451 kts | 149° |
| 2026-05-06 17:58 | -0.52383 | 105.02996 | 32846 ft | 451 kts | 149° |
| 2026-05-06 17:58 | -0.57610 | 105.06523 | 32846 ft | 454 kts | 148° |
| 2026-05-06 17:59 | -0.62817 | 105.10041 | 32846 ft | 451 kts | 148° |
| 2026-05-06 17:59 | -0.67988 | 105.13537 | 32846 ft | 452 kts | 148° |
| 2026-05-06 18:00 | -0.73204 | 105.17065 | 32846 ft | 451 kts | 148° |
| 2026-05-06 18:00 | -0.77904 | 105.20243 | 32846 ft | 451 kts | 148° |
| 2026-05-06 18:01 | -0.83159 | 105.23798 | 32846 ft | 451 kts | 148° |
| 2026-05-06 18:01 | -0.88368 | 105.27323 | 32846 ft | 451 kts | 148° |
| 2026-05-06 18:02 | -0.93532 | 105.30816 | 32846 ft | 451 kts | 148° |
| 2026-05-06 18:02 | -0.98737 | 105.34337 | 32846 ft | 451 kts | 148° |
| 2026-05-06 18:03 | -1.03938 | 105.37856 | 32846 ft | 451 kts | 148° |
| 2026-05-06 18:03 | -1.09102 | 105.41350 | 32845 ft | 449 kts | 148° |
| 2026-05-06 18:04 | -1.14300 | 105.44867 | 32845 ft | 449 kts | 148° |
| 2026-05-06 18:04 | -1.19492 | 105.48381 | 32848 ft | 452 kts | 148° |
| 2026-05-06 18:05 | -1.24692 | 105.51899 | 32845 ft | 449 kts | 148° |
| 2026-05-06 18:05 | -1.29899 | 105.55423 | 32847 ft | 453 kts | 148° |
| 2026-05-06 18:06 | -1.35114 | 105.58953 | 32848 ft | 451 kts | 148° |
| 2026-05-06 18:06 | -1.40318 | 105.62474 | 32845 ft | 456 kts | 148° |
| 2026-05-06 18:07 | -1.45531 | 105.66002 | 32846 ft | 450 kts | 148° |
| 2026-05-06 18:07 | -1.50719 | 105.69514 | 32846 ft | 450 kts | 148° |
| 2026-05-06 18:08 | -1.55891 | 105.73015 | 32844 ft | 447 kts | 148° |
| 2026-05-06 18:08 | -1.61066 | 105.76519 | 32846 ft | 451 kts | 148° |
| 2026-05-06 18:09 | -1.66260 | 105.80035 | 32846 ft | 450 kts | 148° |
| 2026-05-06 18:09 | -1.71414 | 105.83525 | 32846 ft | 450 kts | 148° |
| 2026-05-06 18:10 | -1.76606 | 105.87040 | 32845 ft | 450 kts | 148° |
| 2026-05-06 18:10 | -1.81792 | 105.90550 | 32846 ft | 452 kts | 148° |
| 2026-05-06 18:11 | -1.87004 | 105.94082 | 32844 ft | 452 kts | 148° |
| 2026-05-06 18:11 | -1.92193 | 105.97596 | 32848 ft | 449 kts | 148° |
| 2026-05-06 18:12 | -1.97381 | 106.01109 | 32846 ft | 450 kts | 148° |
| 2026-05-06 18:12 | -2.02569 | 106.04624 | 32846 ft | 450 kts | 148° |
| 2026-05-06 18:13 | -2.07719 | 106.08113 | 32846 ft | 450 kts | 148° |
| 2026-05-06 18:13 | -2.12898 | 106.11622 | 32846 ft | 450 kts | 148° |
| 2026-05-06 18:14 | -2.18384 | 106.14515 | 32847 ft | 443 kts | 165° |
| 2026-05-06 18:14 | -2.24366 | 106.15815 | 32847 ft | 439 kts | 174° |
| 2026-05-06 18:15 | -2.30417 | 106.16680 | 32849 ft | 440 kts | 175° |
| 2026-05-06 18:15 | -2.36459 | 106.17624 | 32845 ft | 438 kts | 174° |
| 2026-05-06 18:16 | -2.42531 | 106.18636 | 32846 ft | 441 kts | 173° |
| 2026-05-06 18:16 | -2.48577 | 106.19663 | 32846 ft | 440 kts | 173° |
| 2026-05-06 18:17 | -2.54619 | 106.20695 | 32846 ft | 440 kts | 173° |
| 2026-05-06 18:17 | -2.60624 | 106.21724 | 32846 ft | 440 kts | 173° |
| 2026-05-06 18:18 | -2.66678 | 106.22761 | 32846 ft | 440 kts | 173° |
| 2026-05-06 18:18 | -2.72692 | 106.23791 | 32843 ft | 434 kts | 173° |
| 2026-05-06 18:19 | -2.78675 | 106.24817 | 32846 ft | 441 kts | 173° |
| 2026-05-06 18:19 | -2.84707 | 106.25851 | 32846 ft | 439 kts | 173° |
| 2026-05-06 18:20 | -2.90730 | 106.26884 | 32846 ft | 439 kts | 173° |
| 2026-05-06 18:20 | -2.96723 | 106.27912 | 32846 ft | 439 kts | 173° |
| 2026-05-06 18:21 | -3.02747 | 106.28944 | 32846 ft | 440 kts | 173° |
| 2026-05-06 18:21 | -3.08768 | 106.29977 | 32845 ft | 438 kts | 173° |
| 2026-05-06 18:22 | -3.14785 | 106.31008 | 32845 ft | 436 kts | 173° |
| 2026-05-06 18:22 | -3.20800 | 106.32041 | 32846 ft | 439 kts | 173° |
| 2026-05-06 18:23 | -3.26788 | 106.33069 | 32846 ft | 439 kts | 173° |
| 2026-05-06 18:23 | -3.32822 | 106.34104 | 32846 ft | 439 kts | 173° |
| 2026-05-06 18:24 | -3.38839 | 106.35136 | 32846 ft | 439 kts | 173° |
| 2026-05-06 18:24 | -3.44869 | 106.36172 | 32846 ft | 439 kts | 173° |
| 2026-05-06 18:25 | -3.49876 | 106.37032 | 32846 ft | 439 kts | 173° |
| 2026-05-06 18:25 | -3.56878 | 106.38234 | 32846 ft | 439 kts | 173° |
| 2026-05-06 18:26 | -3.61920 | 106.39100 | 32846 ft | 439 kts | 173° |
| 2026-05-06 18:26 | -3.67943 | 106.40202 | 32846 ft | 439 kts | 172° |
| 2026-05-06 18:27 | -3.73909 | 106.41321 | 32846 ft | 439 kts | 173° |
| 2026-05-06 18:27 | -3.79922 | 106.42446 | 32846 ft | 439 kts | 173° |
| 2026-05-06 18:28 | -3.85929 | 106.43568 | 32846 ft | 439 kts | 173° |
| 2026-05-06 18:28 | -3.91936 | 106.44689 | 32846 ft | 439 kts | 173° |
| 2026-05-06 18:29 | -3.97940 | 106.45809 | 32846 ft | 439 kts | 173° |
| 2026-05-06 18:29 | -4.03962 | 106.46933 | 32846 ft | 439 kts | 173° |
| 2026-05-06 18:30 | -4.09970 | 106.48054 | 32846 ft | 439 kts | 173° |
| 2026-05-06 18:30 | -4.15941 | 106.49169 | 32846 ft | 438 kts | 173° |
| 2026-05-06 18:31 | -4.21973 | 106.50296 | 32847 ft | 442 kts | 173° |
| 2026-05-06 18:31 | -4.28000 | 106.51421 | 32846 ft | 439 kts | 173° |
| 2026-05-06 18:32 | -4.34006 | 106.52542 | 32846 ft | 439 kts | 173° |
| 2026-05-06 18:32 | -4.40016 | 106.53665 | 32847 ft | 439 kts | 173° |
| 2026-05-06 18:33 | -4.46033 | 106.54790 | 32846 ft | 440 kts | 173° |
| 2026-05-06 18:33 | -4.51974 | 106.55899 | 32844 ft | 438 kts | 173° |
| 2026-05-06 18:34 | -4.58030 | 106.57031 | 32847 ft | 442 kts | 173° |
| 2026-05-06 18:34 | -4.64055 | 106.58157 | 32846 ft | 439 kts | 173° |
| 2026-05-06 18:35 | -4.70055 | 106.59279 | 32700 ft | 435 kts | 173° |
| 2026-05-06 18:35 | -4.73000 | 106.59830 | 32444 ft | 428 kts | 173° |
| 2026-05-06 18:35 | -4.75919 | 106.60376 | 32056 ft | 425 kts | 173° |
| 2026-05-06 18:36 | -4.78818 | 106.60919 | 31641 ft | 422 kts | 173° |
| 2026-05-06 18:36 | -4.81661 | 106.61450 | 31233 ft | 420 kts | 173° |
| 2026-05-06 18:36 | -4.84530 | 106.62006 | 30820 ft | 418 kts | 170° |
| 2026-05-06 18:36 | -4.87320 | 106.62844 | 30411 ft | 418 kts | 163° |
| 2026-05-06 18:37 | -4.90018 | 106.63935 | 30003 ft | 417 kts | 160° |
| 2026-05-06 18:37 | -4.92644 | 106.65144 | 29588 ft | 416 kts | 158° |
| 2026-05-06 18:37 | -4.95257 | 106.66397 | 29148 ft | 413 kts | 158° |
| 2026-05-06 18:37 | -4.97817 | 106.67602 | 28703 ft | 411 kts | 158° |
| 2026-05-06 18:38 | -5.00410 | 106.68803 | 28250 ft | 409 kts | 158° |
| 2026-05-06 18:38 | -5.02989 | 106.69991 | 27800 ft | 407 kts | 159° |
| 2026-05-06 18:38 | -5.05551 | 106.71168 | 27354 ft | 405 kts | 159° |
| 2026-05-06 18:38 | -5.08107 | 106.72342 | 26914 ft | 402 kts | 159° |
| 2026-05-06 18:39 | -5.10642 | 106.73504 | 26483 ft | 400 kts | 159° |
| 2026-05-06 18:39 | -5.13170 | 106.74664 | 26052 ft | 397 kts | 159° |
| 2026-05-06 18:39 | -5.15679 | 106.75815 | 25617 ft | 395 kts | 159° |
| 2026-05-06 18:40 | -5.20658 | 106.78080 | 24761 ft | 390 kts | 159° |
| 2026-05-06 18:40 | -5.23126 | 106.79196 | 24337 ft | 388 kts | 159° |
| 2026-05-06 18:40 | -5.25583 | 106.80307 | 23911 ft | 386 kts | 159° |
| 2026-05-06 18:40 | -5.28032 | 106.81416 | 23487 ft | 384 kts | 159° |
| 2026-05-06 18:41 | -5.30458 | 106.82516 | 23064 ft | 382 kts | 159° |
| 2026-05-06 18:41 | -5.32869 | 106.83609 | 22646 ft | 379 kts | 159° |
| 2026-05-06 18:41 | -5.35271 | 106.84698 | 22221 ft | 377 kts | 159° |
| 2026-05-06 18:41 | -5.37659 | 106.85780 | 21798 ft | 375 kts | 159° |
| 2026-05-06 18:42 | -5.40028 | 106.86854 | 21439 ft | 371 kts | 159° |
| 2026-05-06 18:42 | -5.42348 | 106.87905 | 21250 ft | 362 kts | 159° |
| 2026-05-06 18:42 | -5.44621 | 106.88916 | 21064 ft | 352 kts | 162° |
| 2026-05-06 18:42 | -5.46940 | 106.89435 | 20882 ft | 334 kts | 181° |
| 2026-05-06 18:43 | -5.49212 | 106.89234 | 20581 ft | 328 kts | 194° |
| 2026-05-06 18:43 | -5.51443 | 106.88646 | 20026 ft | 332 kts | 201° |
| 2026-05-06 18:43 | -5.53591 | 106.87900 | 19589 ft | 331 kts | 204° |
| 2026-05-06 18:43 | -5.55729 | 106.87052 | 19149 ft | 330 kts | 206° |
| 2026-05-06 18:44 | -5.57862 | 106.86181 | 18710 ft | 330 kts | 206° |
| 2026-05-06 18:44 | -5.59995 | 106.85326 | 18271 ft | 328 kts | 205° |
| 2026-05-06 18:44 | -5.62108 | 106.84495 | 17841 ft | 323 kts | 205° |
| 2026-05-06 18:44 | -5.64194 | 106.83681 | 17415 ft | 318 kts | 205° |
| 2026-05-06 18:45 | -5.66252 | 106.82883 | 16996 ft | 314 kts | 205° |
| 2026-05-06 18:45 | -5.68239 | 106.82114 | 16592 ft | 309 kts | 205° |
| 2026-05-06 18:45 | -5.70252 | 106.81337 | 16183 ft | 304 kts | 205° |
| 2026-05-06 18:45 | -5.72216 | 106.80578 | 15784 ft | 301 kts | 205° |
| 2026-05-06 18:46 | -5.74144 | 106.79834 | 15391 ft | 299 kts | 205° |
| 2026-05-06 18:46 | -5.76115 | 106.79073 | 14992 ft | 300 kts | 205° |
| 2026-05-06 18:46 | -5.78040 | 106.78330 | 14600 ft | 301 kts | 205° |
| 2026-05-06 18:46 | -5.79995 | 106.77575 | 14202 ft | 301 kts | 205° |
| 2026-05-06 18:47 | -5.81954 | 106.76819 | 13803 ft | 301 kts | 205° |
| 2026-05-06 18:47 | -5.83912 | 106.76063 | 13405 ft | 301 kts | 205° |
| 2026-05-06 18:47 | -5.85726 | 106.75057 | 13026 ft | 293 kts | 223° |
| 2026-05-06 18:47 | -5.87014 | 106.73552 | 12906 ft | 282 kts | 238° |
| 2026-05-06 18:48 | -5.87966 | 106.71841 | 12649 ft | 277 kts | 245° |
| 2026-05-06 18:48 | -5.88743 | 106.70083 | 12360 ft | 274 kts | 249° |
| 2026-05-06 18:48 | -5.89419 | 106.68305 | 12043 ft | 272 kts | 251° |
| 2026-05-06 18:48 | -5.90083 | 106.66529 | 11724 ft | 271 kts | 250° |
| 2026-05-06 18:49 | -5.90767 | 106.64764 | 11409 ft | 270 kts | 250° |
| 2026-05-06 18:49 | -5.91460 | 106.63021 | 11097 ft | 268 kts | 250° |
| 2026-05-06 18:49 | -5.92152 | 106.61289 | 10786 ft | 267 kts | 250° |
| 2026-05-06 18:49 | -5.92846 | 106.59555 | 10474 ft | 266 kts | 250° |
| 2026-05-06 18:50 | -5.93515 | 106.57855 | 10176 ft | 264 kts | 250° |
| 2026-05-06 18:50 | -5.94204 | 106.56145 | 9841 ft | 264 kts | 249° |
| 2026-05-06 18:50 | -5.94910 | 106.54436 | 9560 ft | 264 kts | 249° |
| 2026-05-06 18:50 | -5.95615 | 106.52727 | 9372 ft | 263 kts | 249° |
| 2026-05-06 18:51 | -5.96305 | 106.51044 | 9186 ft | 259 kts | 249° |
| 2026-05-06 18:51 | -5.96988 | 106.49372 | 9001 ft | 258 kts | 249° |
| 2026-05-06 18:51 | -5.97668 | 106.47708 | 8816 ft | 258 kts | 249° |
| 2026-05-06 18:51 | -5.98351 | 106.46032 | 8632 ft | 259 kts | 249° |
| 2026-05-06 18:52 | -5.99038 | 106.44347 | 8445 ft | 261 kts | 249° |
| 2026-05-06 18:52 | -5.99723 | 106.42665 | 8255 ft | 258 kts | 249° |
| 2026-05-06 18:52 | -6.00384 | 106.41040 | 8076 ft | 252 kts | 249° |
| 2026-05-06 18:52 | -6.01042 | 106.39423 | 7896 ft | 247 kts | 249° |
| 2026-05-06 18:53 | -6.01684 | 106.37845 | 7718 ft | 239 kts | 249° |
| 2026-05-06 18:53 | -6.02301 | 106.36329 | 7551 ft | 230 kts | 249° |
| 2026-05-06 18:53 | -6.02903 | 106.34852 | 7392 ft | 225 kts | 249° |
| 2026-05-06 18:53 | -6.03487 | 106.33416 | 7262 ft | 220 kts | 249° |
| 2026-05-06 18:54 | -6.04256 | 106.32092 | 7048 ft | 224 kts | 230° |
| 2026-05-06 18:54 | -6.05626 | 106.31323 | 6828 ft | 234 kts | 199° |
| 2026-05-06 18:54 | -6.07250 | 106.31317 | 6662 ft | 239 kts | 177° |
| 2026-05-06 18:54 | -6.08866 | 106.31745 | 6466 ft | 239 kts | 165° |
| 2026-05-06 18:55 | -6.10451 | 106.32226 | 6263 ft | 237 kts | 165° |
| 2026-05-06 18:55 | -6.12041 | 106.32631 | 6056 ft | 236 kts | 166° |
| 2026-05-06 18:55 | -6.13642 | 106.32974 | 5852 ft | 235 kts | 168° |
| 2026-05-06 18:55 | -6.15239 | 106.33267 | 5651 ft | 231 kts | 169° |
| 2026-05-06 18:56 | -6.16810 | 106.33541 | 5455 ft | 227 kts | 169° |
| 2026-05-06 18:56 | -6.18353 | 106.33810 | 5264 ft | 222 kts | 169° |
| 2026-05-06 18:56 | -6.19851 | 106.34112 | 5076 ft | 216 kts | 162° |
| 2026-05-06 18:56 | -6.21102 | 106.34845 | 4910 ft | 209 kts | 138° |
| 2026-05-06 18:57 | -6.21940 | 106.35974 | 4840 ft | 196 kts | 123° |
| 2026-05-06 18:57 | -6.22625 | 106.37133 | 4670 ft | 190 kts | 120° |
| 2026-05-06 18:57 | -6.23251 | 106.38296 | 4445 ft | 188 kts | 117° |
| 2026-05-06 18:57 | -6.23706 | 106.39491 | 4268 ft | 181 kts | 97° |
| 2026-05-06 18:58 | -6.23547 | 106.40724 | 4126 ft | 179 kts | 79° |
| 2026-05-06 18:58 | -6.23188 | 106.41933 | 3968 ft | 179 kts | 72° |
| 2026-05-06 18:58 | -6.22750 | 106.43101 | 3842 ft | 178 kts | 69° |
| 2026-05-06 18:58 | -6.22288 | 106.44255 | 3711 ft | 178 kts | 68° |
| 2026-05-06 18:59 | -6.21825 | 106.45410 | 3572 ft | 178 kts | 68° |
| 2026-05-06 18:59 | -6.21365 | 106.46559 | 3432 ft | 177 kts | 68° |
| 2026-05-06 18:59 | -6.20906 | 106.47708 | 3293 ft | 177 kts | 68° |
| 2026-05-06 18:59 | -6.20449 | 106.48851 | 3154 ft | 176 kts | 68° |
| 2026-05-06 19:00 | -6.19997 | 106.49984 | 2979 ft | 175 kts | 68° |
| 2026-05-06 19:00 | -6.19559 | 106.51082 | 2773 ft | 165 kts | 68° |
| 2026-05-06 19:00 | -6.19143 | 106.52121 | 2549 ft | 156 kts | 68° |
| 2026-05-06 19:00 | -6.18881 | 106.52779 | 2409 ft | 150 kts | 68° |
| 2026-05-06 19:01 | -6.18379 | 106.54036 | 2148 ft | 141 kts | 68° |
| 2026-05-06 19:01 | -6.18020 | 106.54936 | 1960 ft | 138 kts | 68° |
| 2026-05-06 19:01 | -6.17663 | 106.55829 | 1778 ft | 138 kts | 68° |
| 2026-05-06 19:01 | -6.17306 | 106.56724 | 1597 ft | 137 kts | 68° |
| 2026-05-06 19:02 | -6.16950 | 106.57614 | 1415 ft | 137 kts | 68° |
| 2026-05-06 19:02 | -6.16597 | 106.58499 | 1234 ft | 137 kts | 68° |
| 2026-05-06 19:02 | -6.16242 | 106.59387 | 1052 ft | 136 kts | 68° |
| 2026-05-06 19:02 | -6.15893 | 106.60261 | 873 ft | 136 kts | 68° |
| 2026-05-06 19:03 | -6.15547 | 106.61139 | 747 ft | 135 kts | 68° |
| 2026-05-06 19:03 | -6.15198 | 106.62020 | 595 ft | 136 kts | 68° |
| 2026-05-06 19:03 | -6.14841 | 106.62901 | 370 ft | 136 kts | 68° |
| 2026-05-06 19:03 | -6.14495 | 106.63770 | 182 ft | 134 kts | 68° |
| 2026-05-06 19:04 | -6.14147 | 106.64643 | 54 ft | 132 kts | 67° |
| 2026-05-06 19:04 | -6.13873 | 106.65316 | 48 ft | 65 kts | 68° |
| 2026-05-06 19:04 | -6.13743 | 106.65645 | 48 ft | 47 kts | 68° |
| 2026-05-06 19:04 | -6.13632 | 106.65923 | 48 ft | 39 kts | 68° |
| 2026-05-06 19:05 | -6.13535 | 106.66149 | 48 ft | 31 kts | 56° |
| 2026-05-06 19:05 | -6.13399 | 106.66280 | 48 ft | 22 kts | 29° |
| 2026-05-06 19:05 | -6.13290 | 106.66315 | 48 ft | 13 kts | 36° |
| 2026-05-06 19:05 | -6.13253 | 106.66387 | 48 ft | 11 kts | 69° |
| 2026-05-06 19:06 | -6.13224 | 106.66460 | 48 ft | 13 kts | 68° |
| 2026-05-06 19:06 | -6.13185 | 106.66559 | 48 ft | 17 kts | 68° |
| 2026-05-06 19:06 | -6.13130 | 106.66696 | 48 ft | 27 kts | 68° |
| 2026-05-06 19:06 | -6.13055 | 106.66884 | 48 ft | 28 kts | 68° |
| 2026-05-06 19:07 | -6.12981 | 106.67069 | 48 ft | 28 kts | 68° |
| 2026-05-06 19:07 | -6.12930 | 106.67196 | 48 ft | 32 kts | 68° |
| 2026-05-06 19:07 | -6.12840 | 106.67431 | 48 ft | 28 kts | 63° |
| 2026-05-06 19:07 | -6.12740 | 106.67604 | 48 ft | 27 kts | 59° |
| 2026-05-06 19:08 | -6.12637 | 106.67761 | 48 ft | 26 kts | 47° |
| 2026-05-06 19:08 | -6.12482 | 106.67861 | 48 ft | 27 kts | 8° |
| 2026-05-06 19:08 | -6.12294 | 106.67845 | 48 ft | 29 kts | 339° |
| 2026-05-06 19:08 | -6.12100 | 106.67767 | 56 ft | 30 kts | 338° |
| 2026-05-06 19:09 | -6.11910 | 106.67692 | 67 ft | 30 kts | 339° |
| 2026-05-06 19:09 | -6.11739 | 106.67622 | 71 ft | 14 kts | 336° |
| 2026-05-06 19:09 | -6.11612 | 106.67573 | 48 ft | 28 kts | 340° |
| 2026-05-06 19:09 | -6.11449 | 106.67509 | 48 ft | 22 kts | 339° |
| 2026-05-06 19:10 | -6.11293 | 106.67447 | 48 ft | 27 kts | 338° |
| 2026-05-06 19:10 | -6.11172 | 106.67399 | 48 ft | 13 kts | 338° |
| 2026-05-06 19:10 | -6.11128 | 106.67378 | 48 ft | 11 kts | 326° |
| 2026-05-06 19:10 | -6.11084 | 106.67289 | 48 ft | 10 kts | 270° |
| 2026-05-06 19:11 | -6.11094 | 106.67232 | 48 ft | 16 kts | 256° |
| 2026-05-06 19:11 | -6.11129 | 106.67084 | 48 ft | 24 kts | 257° |
| 2026-05-06 19:11 | -6.11185 | 106.66908 | 48 ft | 27 kts | 248° |
| 2026-05-06 19:11 | -6.11250 | 106.66747 | 48 ft | 24 kts | 248° |
| 2026-05-06 19:12 | -6.11308 | 106.66603 | 48 ft | 20 kts | 248° |
| 2026-05-06 19:12 | -6.11358 | 106.66480 | 48 ft | 19 kts | 248° |
| 2026-05-06 19:12 | -6.11415 | 106.66335 | 48 ft | 26 kts | 248° |
| 2026-05-06 19:12 | -6.11481 | 106.66167 | 48 ft | 23 kts | 248° |
| 2026-05-06 19:13 | -6.11546 | 106.66003 | 48 ft | 27 kts | 248° |
| 2026-05-06 19:13 | -6.11615 | 106.65830 | 48 ft | 20 kts | 248° |
| 2026-05-06 19:13 | -6.11661 | 106.65717 | 48 ft | 12 kts | 248° |
| 2026-05-06 19:13 | -6.11686 | 106.65653 | 48 ft | 9 kts | 248° |
| 2026-05-06 19:14 | -6.11732 | 106.65616 | 48 ft | 9 kts | 189° |
| 2026-05-06 19:14 | -6.11794 | 106.65634 | 48 ft | 10 kts | 158° |
| 2026-05-06 19:14 | -6.11853 | 106.65658 | 48 ft | 8 kts | 158° |
| 2026-05-06 19:14 | -6.11912 | 106.65682 | 48 ft | 9 kts | 158° |
| 2026-05-06 19:15 | -6.11969 | 106.65705 | 48 ft | 9 kts | 158° |
| 2026-05-06 19:15 | -6.12024 | 106.65726 | 48 ft | 8 kts | 158° |
| 2026-05-06 19:15 | -6.12067 | 106.65744 | 48 ft | 8 kts | 158° |
| 2026-05-06 19:15 | -6.12106 | 106.65758 | 48 ft | 4 kts | 171° |
| 2026-05-06 19:16 | -6.12121 | 106.65745 | 48 ft | 3 kts | 243° |
| 2026-05-06 19:16 | -6.12128 | 106.65719 | 48 ft | 4 kts | 258° |
| 2026-05-06 19:16 | -6.12129 | 106.65699 | 48 ft | 2 kts | 271° |
| 2026-05-06 19:16 | -6.12128 | 106.65686 | 48 ft | 2 kts | 271° |
| 2026-05-06 19:17 | -6.12128 | 106.65679 | 48 ft | 0 kts | 271° |